createdAt,value
2023-01-08T00:18:18.089Z,0.90
2023-01-08T01:07:34.745Z,0.90
2023-01-08T01:10:02.285Z,0.80
2023-01-08T01:12:29.853Z,1.40
2023-01-08T01:14:57.406Z,1.70
2023-01-08T01:17:25.024Z,0.93
2023-01-08T01:37:59.969Z,1.20
2023-01-08T01:40:27.964Z,1.30
2023-01-08T01:42:55.455Z,1.58
2023-01-08T02:33:52.856Z,1.10
2023-01-08T02:47:34.424Z,1.20
2023-01-08T02:50:25.317Z,1.30
2023-01-08T08:29:16.760Z,0.75
2023-01-08T08:43:20.830Z,1.23
2023-01-08T08:45:48.379Z,1.35
2023-01-08T08:48:17.510Z,1.05
2023-01-08T09:07:10.778Z,1.23
2023-01-08T09:29:15.027Z,0.90
2023-01-08T10:54:47.734Z,0.88
2023-01-08T10:57:33.352Z,0.73
2023-01-08T11:00:02.475Z,1.25
2023-01-08T11:02:39.946Z,0.93
2023-01-08T11:05:09.848Z,0.75
2023-01-08T11:07:37.721Z,0.77
2023-01-08T11:10:05.755Z,1.08
2023-01-08T11:12:42.862Z,0.80
2023-01-08T11:15:18.426Z,0.80
2023-01-08T11:36:44.473Z,1.02
2023-01-08T11:44:29.069Z,1.08
2023-01-08T11:47:02.893Z,0.70
2023-01-08T11:49:36.639Z,1.02
2023-01-08T12:16:42.758Z,0.75
2023-01-08T12:42:19.371Z,0.40
2023-01-08T12:44:47.306Z,1.25
2023-01-08T12:47:17.036Z,0.85
2023-01-08T12:49:57.858Z,0.82
2023-01-08T12:52:37.286Z,0.63
2023-01-08T12:55:04.761Z,0.95
2023-01-08T12:57:32.163Z,1.00
2023-01-08T13:16:08.740Z,0.90
2023-01-08T13:18:36.312Z,0.88
2023-01-08T13:21:06.032Z,0.63
2023-01-08T13:23:37.075Z,0.60
2023-01-08T13:26:05.789Z,1.17
2023-01-08T13:28:36.025Z,0.93
2023-01-08T13:31:21.916Z,0.98
2023-01-08T13:33:52.901Z,1.92
2023-01-08T13:36:25.044Z,2.17
2023-01-08T13:39:01.818Z,1.80
2023-01-08T13:41:32.446Z,2.78
2023-01-08T13:44:05.764Z,3.78
2023-01-08T13:49:02.510Z,2.15
2023-01-08T13:51:30.036Z,2.63
2023-01-08T13:53:58.377Z,2.05
2023-01-08T13:56:26.335Z,1.98
2023-01-08T13:58:54.429Z,2.60
2023-01-08T14:01:23.275Z,2.40
2023-01-08T14:03:51.141Z,2.08
2023-01-08T14:06:22.489Z,2.13
2023-01-08T14:08:53.065Z,1.38
2023-01-08T14:13:55.907Z,2.38
2023-01-08T14:16:23.664Z,2.50
2023-01-08T14:29:46.847Z,3.05
2023-01-08T14:32:19.029Z,3.42
2023-01-08T14:34:46.960Z,3.88
2023-01-08T20:59:36.514Z,2.95
2023-01-08T21:02:04.178Z,2.88
2023-01-08T21:04:32.140Z,2.92
